createdAt,value
2022-12-15T00:01:09.580Z,10.97
2022-12-15T00:05:39.811Z,10.67
2022-12-15T00:10:10.052Z,11.53
2022-12-15T00:14:40.197Z,10.63
2022-12-15T00:19:10.368Z,10.30
2022-12-15T00:23:40.435Z,9.67
2022-12-15T00:28:10.528Z,10.03
2022-12-15T00:32:41.244Z,10.10
2022-12-15T00:37:11.336Z,10.43
2022-12-15T00:41:24.086Z,10.53
2022-12-15T00:45:54.404Z,9.77
2022-12-15T00:50:24.478Z,10.07
2022-12-15T00:54:54.530Z,9.57
2022-12-15T00:59:24.661Z,9.67
2022-12-15T01:03:54.797Z,11.07
2022-12-15T01:08:24.958Z,10.07
2022-12-15T01:12:55.242Z,10.00
2022-12-15T01:17:25.415Z,10.90
2022-12-15T01:21:36.901Z,10.03
2022-12-15T01:25:51.152Z,11.27
2022-12-15T01:30:03.681Z,11.13
2022-12-15T01:34:15.226Z,10.70
2022-12-15T01:38:28.494Z,9.47
2022-12-15T01:42:40.197Z,9.73
2022-12-15T01:46:55.202Z,9.30
2022-12-15T01:51:13.351Z,9.80
2022-12-15T01:55:28.360Z,9.77
2022-12-15T01:59:46.218Z,9.30
2022-12-15T02:03:57.840Z,9.40
2022-12-15T02:08:10.109Z,10.27
2022-12-15T02:12:46.699Z,9.87
2022-12-15T02:17:06.288Z,9.47
2022-12-15T02:21:30.624Z,9.43
2022-12-15T02:25:57.272Z,10.07
2022-12-15T02:30:15.285Z,9.60
2022-12-15T02:35:08.702Z,9.80
2022-12-15T02:39:20.313Z,10.53
2022-12-15T02:43:37.086Z,9.17
2022-12-15T02:48:09.895Z,10.07
2022-12-15T02:52:58.996Z,10.00
2022-12-15T02:57:28.859Z,8.97
2022-12-15T03:01:52.033Z,9.63
2022-12-15T03:06:04.365Z,9.47
2022-12-15T03:10:16.304Z,9.97
2022-12-15T03:14:28.185Z,9.20
2022-12-15T03:18:39.983Z,9.63
2022-12-15T03:22:51.587Z,9.50
2022-12-15T03:27:04.547Z,8.93
2022-12-15T03:31:16.210Z,9.40
2022-12-15T03:35:27.877Z,9.83
2022-12-15T03:39:39.446Z,9.13
2022-12-15T03:43:50.989Z,9.77
2022-12-15T03:48:02.630Z,10.03
2022-12-15T03:52:14.171Z,10.00
2022-12-15T03:56:25.880Z,9.40
2022-12-15T04:00:37.739Z,9.67
2022-12-15T04:04:49.356Z,9.27
2022-12-15T04:09:01.097Z,9.43
2022-12-15T04:13:12.844Z,9.43
2022-12-15T04:17:24.493Z,9.37
2022-12-15T04:21:36.173Z,9.90
2022-12-15T04:26:06.484Z,8.73
2022-12-15T04:30:36.673Z,9.70
2022-12-15T04:35:06.991Z,9.40
2022-12-15T04:39:37.654Z,8.77
2022-12-15T04:44:07.821Z,9.27
2022-12-15T04:48:38.011Z,9.77
2022-12-15T04:53:08.091Z,10.53
2022-12-15T04:57:38.200Z,10.00
2022-12-15T05:02:08.424Z,9.67
2022-12-15T05:06:38.460Z,9.13
2022-12-15T05:11:08.644Z,9.23
2022-12-15T05:15:38.921Z,9.10
2022-12-15T05:20:09.238Z,8.90
2022-12-15T05:24:39.334Z,9.30
2022-12-15T05:29:09.608Z,10.30
2022-12-15T05:33:21.299Z,9.90
2022-12-15T05:37:32.906Z,9.97
2022-12-15T05:41:45.082Z,13.53
2022-12-15T05:45:56.744Z,28.00
2022-12-15T05:50:08.907Z,30.60
2022-12-15T05:54:20.632Z,24.40
2022-12-15T05:58:32.224Z,18.57
2022-12-15T06:02:43.806Z,15.93
2022-12-15T06:06:55.397Z,12.93
2022-12-15T06:11:07.455Z,11.73
2022-12-15T06:15:19.073Z,14.70
2022-12-15T06:19:30.904Z,12.43
2022-12-15T06:23:42.635Z,10.73
2022-12-15T06:27:58.446Z,10.93
2022-12-15T06:32:13.275Z,11.27
2022-12-15T06:36:25.130Z,12.07
2022-12-15T06:40:38.288Z,12.80
2022-12-15T06:44:50.094Z,11.20
2022-12-15T06:49:02.216Z,12.03
2022-12-15T06:53:15.395Z,11.63
2022-12-15T06:57:27.003Z,11.83
2022-12-15T07:01:38.891Z,11.70
2022-12-15T07:06:02.374Z,11.90
2022-12-15T07:10:14.102Z,11.07
2022-12-15T07:14:26.714Z,15.17
2022-12-15T07:18:38.906Z,13.17
2022-12-15T07:22:51.781Z,12.43
2022-12-15T07:27:03.393Z,12.37
2022-12-15T07:31:15.708Z,11.70
2022-12-15T07:35:27.439Z,13.13
2022-12-15T07:39:38.984Z,14.10
2022-12-15T07:43:50.452Z,14.83
2022-12-15T07:48:02.024Z,14.53
2022-12-15T07:52:14.091Z,13.30
2022-12-15T07:56:25.651Z,11.67
2022-12-15T08:00:37.230Z,12.40
2022-12-15T08:04:49.170Z,12.20
2022-12-15T08:09:00.633Z,13.40
2022-12-15T08:13:31.376Z,13.53
2022-12-15T08:17:46.473Z,15.37
2022-12-15T08:21:58.447Z,16.27
2022-12-15T08:26:12.483Z,15.57
2022-12-15T08:30:24.496Z,13.40
2022-12-15T08:34:36.105Z,20.73
2022-12-15T08:38:47.754Z,23.40
2022-12-15T08:42:59.216Z,19.97
2022-12-15T08:47:10.730Z,21.80
2022-12-15T08:51:25.767Z,24.20
2022-12-15T08:55:37.303Z,22.13
2022-12-15T08:59:49.004Z,19.57
2022-12-15T09:04:01.323Z,15.10
2022-12-15T09:08:13.012Z,15.80
2022-12-15T09:12:28.247Z,27.17
2022-12-15T09:16:39.813Z,17.30
2022-12-15T09:20:51.497Z,16.30
2022-12-15T09:25:04.476Z,14.77
2022-12-15T09:29:16.296Z,14.57
2022-12-15T09:33:28.022Z,15.43
2022-12-15T09:37:39.964Z,14.63
2022-12-15T09:42:00.746Z,14.87
2022-12-15T09:46:50.707Z,14.67
2022-12-15T09:51:05.453Z,14.77
2022-12-15T09:55:37.337Z,15.67
2022-12-15T10:00:26.074Z,15.77
2022-12-15T10:04:43.590Z,15.63
2022-12-15T10:09:10.108Z,15.60
2022-12-15T10:13:47.390Z,15.90
2022-12-15T10:18:46.394Z,14.87
2022-12-15T10:23:14.044Z,15.60
2022-12-15T10:27:50.393Z,15.13
2022-12-15T10:32:16.312Z,14.87
2022-12-15T10:36:27.884Z,16.07
2022-12-15T10:40:55.570Z,15.07
2022-12-15T10:45:33.072Z,15.07
2022-12-15T10:49:44.850Z,16.17
2022-12-15T10:54:13.196Z,14.77
2022-12-15T10:58:24.920Z,15.83
2022-12-15T11:02:37.344Z,16.27
2022-12-15T11:06:56.484Z,15.87
2022-12-15T11:11:45.236Z,16.17
2022-12-15T11:15:57.148Z,22.60
2022-12-15T11:20:18.383Z,18.30
2022-12-15T11:25:12.433Z,26.10
2022-12-15T11:29:23.975Z,17.83
2022-12-15T11:33:36.091Z,19.83
2022-12-15T11:38:03.568Z,16.33
2022-12-15T11:42:30.259Z,14.90
2022-12-15T11:46:51.796Z,15.20
2022-12-15T11:51:17.644Z,14.83
2022-12-15T11:55:47.436Z,15.73
2022-12-15T12:00:09.001Z,15.10
2022-12-15T12:04:43.482Z,19.03
2022-12-15T12:09:10.208Z,17.10
2022-12-15T12:13:38.168Z,17.33
2022-12-15T12:17:53.144Z,16.10
2022-12-15T12:22:14.942Z,16.37
2022-12-15T12:26:37.821Z,16.30
2022-12-15T12:30:50.504Z,15.57
2022-12-15T12:35:38.361Z,15.63
2022-12-15T12:39:54.052Z,16.27
2022-12-15T12:44:21.837Z,16.50
2022-12-15T12:48:58.733Z,16.77
2022-12-15T12:53:32.616Z,17.37
2022-12-15T12:57:45.808Z,17.73
2022-12-15T13:02:18.661Z,16.43
2022-12-15T13:06:36.531Z,18.27
2022-12-15T13:10:50.786Z,18.97
2022-12-15T13:15:18.554Z,17.07
2022-12-15T13:19:58.164Z,21.30
2022-12-15T13:24:35.727Z,18.63
2022-12-15T13:28:50.738Z,15.83
2022-12-15T13:33:18.350Z,17.17
2022-12-15T13:38:03.140Z,17.77
2022-12-15T13:42:33.040Z,16.60
2022-12-15T13:46:47.640Z,16.60
2022-12-15T13:51:18.263Z,16.10
2022-12-15T13:55:38.239Z,16.97
2022-12-15T14:00:18.771Z,17.03
2022-12-15T14:04:30.433Z,16.03
2022-12-15T14:08:42.994Z,16.33
2022-12-15T14:12:57.563Z,19.73
2022-12-15T14:17:14.057Z,17.80
2022-12-15T14:21:30.355Z,16.83
2022-12-15T14:25:52.872Z,16.13
2022-12-15T14:30:14.013Z,20.83
2022-12-15T14:34:29.163Z,29.10
2022-12-15T14:38:45.966Z,24.90
2022-12-15T14:42:57.821Z,27.17
2022-12-15T14:47:23.536Z,21.57
2022-12-15T14:51:42.972Z,42.60
2022-12-15T14:55:54.919Z,26.10
2022-12-15T15:00:29.919Z,25.97
2022-12-15T15:04:41.689Z,18.37
2022-12-15T15:08:53.801Z,17.90
2022-12-15T15:13:05.525Z,19.20
2022-12-15T15:17:42.665Z,16.63
2022-12-15T15:21:54.377Z,18.53
2022-12-15T15:26:05.925Z,17.57
2022-12-15T15:30:21.504Z,19.77
2022-12-15T15:34:33.447Z,19.43
2022-12-15T15:38:46.781Z,18.17
2022-12-15T15:42:58.440Z,21.07
2022-12-15T15:47:36.837Z,20.20
2022-12-15T15:51:48.882Z,20.37
2022-12-15T15:56:02.272Z,21.80
2022-12-15T16:00:21.647Z,28.55
2022-12-15T16:04:33.366Z,24.53
2022-12-15T16:08:47.392Z,23.57
2022-12-15T16:13:01.340Z,20.23
2022-12-15T16:17:14.817Z,19.73
2022-12-15T16:21:27.888Z,19.47
2022-12-15T16:25:50.638Z,19.47
2022-12-15T16:30:06.189Z,17.77
2022-12-15T16:34:19.184Z,19.90
2022-12-15T16:38:32.154Z,21.70
2022-12-15T16:42:48.567Z,20.70
2022-12-15T16:47:00.358Z,19.27
2022-12-15T16:51:29.473Z,20.57
2022-12-15T16:55:42.065Z,19.87
2022-12-15T16:59:53.700Z,20.37
2022-12-15T17:04:05.382Z,20.60
2022-12-15T17:08:29.764Z,20.53
2022-12-15T17:12:41.715Z,19.67
2022-12-15T17:16:55.549Z,22.30
2022-12-15T17:21:13.396Z,25.23
2022-12-15T17:26:00.877Z,48.87
2022-12-15T17:30:02.623Z,31.37
2022-12-15T17:34:30.331Z,31.20
2022-12-15T17:38:42.127Z,28.87
2022-12-15T17:42:53.704Z,24.63
2022-12-15T17:47:07.971Z,24.53
2022-12-15T17:51:20.323Z,25.47
2022-12-15T17:55:35.375Z,25.20
2022-12-15T17:59:47.348Z,28.13
2022-12-15T18:03:59.160Z,24.97
2022-12-15T18:08:27.856Z,30.20
2022-12-15T18:12:39.553Z,30.47
2022-12-15T18:16:51.204Z,26.23
2022-12-15T18:21:12.677Z,26.80
2022-12-15T18:25:30.157Z,24.73
2022-12-15T18:29:42.020Z,24.47
2022-12-15T18:34:00.885Z,26.97
2022-12-15T18:38:23.802Z,26.40
2022-12-15T18:42:35.561Z,27.47
2022-12-15T18:46:48.225Z,26.80
2022-12-15T18:51:02.741Z,25.80
2022-12-15T18:55:18.941Z,23.30
2022-12-15T18:59:35.929Z,29.83
2022-12-15T19:03:47.597Z,23.97
2022-12-15T19:08:03.050Z,23.17
2022-12-15T19:12:18.549Z,22.73
2022-12-15T19:16:53.084Z,25.80
2022-12-15T19:21:44.386Z,22.73
2022-12-15T19:25:55.971Z,22.83
2022-12-15T19:30:18.910Z,22.40
2022-12-15T19:34:30.968Z,27.87
2022-12-15T19:38:43.528Z,26.27
2022-12-15T19:42:55.412Z,24.20
2022-12-15T19:47:13.507Z,25.57
2022-12-15T19:51:25.560Z,24.70
2022-12-15T19:55:37.220Z,25.87
2022-12-15T19:59:49.050Z,22.37
2022-12-15T20:04:00.694Z,23.90
2022-12-15T20:08:22.132Z,22.37
2022-12-15T20:12:33.869Z,19.57
2022-12-15T20:16:45.686Z,19.60
2022-12-15T20:20:59.212Z,21.97
2022-12-15T20:25:16.968Z,22.07
2022-12-15T20:29:30.842Z,24.57
2022-12-15T20:33:47.361Z,24.17
2022-12-15T20:38:00.264Z,20.10
2022-12-15T20:42:15.238Z,19.47
2022-12-15T20:46:35.492Z,17.90
2022-12-15T20:50:49.196Z,17.47
2022-12-15T20:55:02.951Z,16.67
2022-12-15T20:59:36.525Z,16.27
2022-12-15T21:03:51.853Z,16.63
2022-12-15T21:08:14.337Z,16.03
2022-12-15T21:12:27.786Z,16.03
2022-12-15T21:16:39.562Z,16.67
2022-12-15T21:20:54.425Z,16.07
2022-12-15T21:25:22.369Z,16.77
2022-12-15T21:29:34.966Z,16.37
2022-12-15T21:33:47.085Z,16.60
2022-12-15T21:38:01.226Z,15.17
2022-12-15T21:42:16.019Z,15.37
2022-12-15T21:46:28.815Z,14.83
2022-12-15T21:50:43.259Z,19.30
2022-12-15T21:54:54.949Z,17.67
2022-12-15T21:59:12.813Z,16.53
2022-12-15T22:03:24.464Z,15.97
2022-12-15T22:07:36.108Z,17.23
2022-12-15T22:11:51.379Z,16.77
2022-12-15T22:16:03.096Z,17.17
2022-12-15T22:20:23.236Z,16.70
2022-12-15T22:24:34.923Z,17.07
2022-12-15T22:28:46.509Z,17.70
2022-12-15T22:32:58.151Z,18.90
2022-12-15T22:37:09.822Z,19.17
2022-12-15T22:41:22.905Z,18.97
2022-12-15T22:45:38.258Z,17.27
2022-12-15T22:49:52.753Z,18.73
2022-12-15T22:54:17.889Z,18.00
2022-12-15T22:58:41.650Z,18.00
2022-12-15T23:02:53.397Z,19.67
2022-12-15T23:07:10.103Z,20.37
2022-12-15T23:11:37.167Z,18.77
2022-12-15T23:16:08.384Z,17.20
2022-12-15T23:20:20.188Z,17.70
2022-12-15T23:24:31.839Z,17.10
2022-12-15T23:28:43.709Z,16.37
2022-12-15T23:32:55.621Z,17.50
2022-12-15T23:37:07.461Z,18.30
2022-12-15T23:41:20.030Z,18.37
2022-12-15T23:45:31.586Z,16.73
2022-12-15T23:49:43.178Z,17.53
2022-12-15T23:53:54.808Z,17.60
2022-12-15T23:58:06.457Z,17.07
